Latest Weather Observations for Lockhart River

IDQ60801

Issued at 2:22 am EST Friday 26 April 2019 (issued every 10 minutes, with the page automatically refreshed every 10 minutes)

About weather observations | Map of weather stations | Latest weather observations for QLD | Other Formats
Station Details ID: 028008 Name: LOCKHART RIVER AIRPORT Lat: -12.79 Lon: 143.30 Height: 18.5 m
Data from the previous 72 hours. | See also: Recent months at Lockhart River
Date/Time
EST
Temp
°C
App
Temp
°C
Dew
Point
°C
Rel
Hum
%
Delta-T
°C
Wind Press
QNH
hPa
Press
MSL
hPa
Rain since
9am
mm
Dir  Spd
km/h
Gust
km/h
Spd
kts
Gust
kts
26/02:00am 26.6 29.3 24.1 86 1.7 SE 17 20 9 11 1009.4 1009.3 0.0
26/01:30am 26.9 29.8 24.4 86 1.7 SE 17 22 9 12 1009.8 1009.7 0.0
26/01:00am 26.8 30.9 24.6 88 1.5 SE 11 15 6 8 1010.3 1010.2 0.0
26/12:30am 26.9 30.6 24.5 87 1.7 SE 13 19 7 10 1010.6 1010.5 0.0
26/12:00am 26.8 30.5 24.5 87 1.6 SSE 13 17 7 9 1010.8 1010.7 0.0
 
Date/Time
EST
Temp
°C
App
Temp
°C
Dew
Point
°C
Rel
Hum
%
Delta-T
°C
Wind Press
QNH
hPa
Press
MSL
hPa
Rain since
9am
mm
Dir  Spd
km/h
Gust
km/h
Spd
kts
Gust
kts
25/11:30pm 26.9 30.1 24.4 86 1.7 SE 15 20 8 11 1010.7 1010.6 0.0
25/11:00pm 26.5 30.9 24.5 89 1.4 SSE 9 13 5 7 1010.8 1010.7 0.0
25/10:30pm 25.9 30.6 24.3 91 1.1 S 7 9 4 5 1011.0 1010.9 0.0
25/10:00pm 25.9 30.5 24.1 90 1.2 S 7 7 4 4 1010.9 1010.8 0.0
25/09:30pm 26.1 30.6 24.0 88 1.4 S 7 9 4 5 1010.9 1010.8 0.0
25/09:15pm 26.4 30.6 24.1 87 1.6 S 9 11 5 6 1010.9 1010.8 0.0
25/09:00pm 26.5 30.3 24.0 86 1.7 S 11 15 6 8 1010.8 1010.7 0.0
25/08:30pm 26.8 30.1 23.9 84 2.0 SSE 13 20 7 11 1010.7 1010.6 0.0
25/08:00pm 27.2 30.9 23.9 82 2.3 SSE 11 15 6 8 1010.1 1010.0 0.0
25/07:30pm 27.3 30.5 23.7 81 2.5 SE 13 19 7 10 1010.0 1009.9 0.0
25/07:00pm 27.6 30.0 23.6 79 2.7 SE 17 24 9 13 1009.6 1009.5 0.0
25/06:30pm 27.8 30.5 23.4 77 3.0 SE 15 22 8 12 1009.5 1009.4 0.0
25/06:00pm 28.4 30.2 23.5 75 3.4 SE 20 30 11 16 1009.1 1009.0 0.0
25/05:30pm 28.5 30.9 23.6 75 3.4 ESE 17 26 9 14 1008.7 1008.6 0.0
25/05:00pm 28.9 30.3 23.6 73 3.7 ESE 22 32 12 17 1008.4 1008.3 0.0
25/04:30pm 29.3 31.1 23.5 71 4.0 ESE 20 26 11 14 1008.2 1008.1 0.0
25/04:00pm 29.2 30.5 23.4 71 4.0 SE 22 33 12 18 1008.0 1007.9 0.0
25/03:30pm 29.7 31.7 23.6 69 4.2 ESE 19 26 10 14 1008.1 1008.0 0.0
25/03:00pm 29.9 31.7 23.6 69 4.4 ESE 20 28 11 15 1008.2 1008.1 0.0
25/02:30pm 29.5 30.2 23.0 68 4.4 ESE 24 33 13 18 1008.2 1008.1 0.0
25/02:00pm 29.8 31.4 23.3 68 4.5 ESE 20 28 11 15 1008.6 1008.5 0.0
25/01:30pm 30.2 32.2 22.9 65 5.0 ESE 17 26 9 14 1009.0 1008.9 0.0
25/01:00pm 29.6 30.9 22.6 66 4.8 ESE 20 35 11 19 1009.2 1009.1 0.0
25/12:30pm 29.5 31.0 23.0 68 4.4 E 20 32 11 17 1009.4 1009.3 0.0
25/12:00pm 30.4 32.6 24.3 70 4.3 ESE 20 32 11 17 1009.9 1009.8 0.0
25/11:30am 29.4 30.3 22.6 67 4.6 ESE 22 33 12 18 1010.5 1010.4 0.0
25/11:00am 29.6 31.0 23.5 69 4.2 SE 22 37 12 20 1010.9 1010.8 0.0
25/10:30am 29.3 30.2 23.3 70 4.1 ESE 24 30 13 16 1011.2 1011.1 0.0
25/10:00am 29.4 31.2 23.6 71 4.0 ESE 20 30 11 16 1011.0 1010.9 0.0
25/09:30am 28.7 30.6 23.4 73 3.6 ESE 19 28 10 15 1011.0 1010.9 0.0
25/09:12am 28.5 30.4 23.4 74 3.5 ESE 19 26 10 14 1011.0 1010.9 0.0
25/09:00am 27.8 30.7 23.8 79 2.8 ESE 15 26 8 14 1010.9 1010.8 0.0
25/08:49am 27.7 31.6 24.9 85 2.0 SSE 13 17 7 9 1010.8 1010.7 0.0
25/08:30am 26.4 31.2 24.1 87 1.6 SSE 6 7 3 4 1010.7 1010.6 0.0
25/08:00am 24.3 30.1 24.0 98 0.2 CALM 0 0 0 0 1010.5 1010.4 0.0
25/07:30am 23.3 28.6 23.0 98 0.2 CALM 0 0 0 0 1010.4 1010.3 0.0
25/07:00am 22.6 27.5 22.3 98 0.2 CALM 0 0 0 0 1010.1 1010.0 0.0
25/06:49am 22.6 27.5 22.3 98 0.2 CALM 0 0 0 0 1010.0 1009.9 0.0
25/06:30am 22.5 27.3 22.2 98 0.2 CALM 0 0 0 0 1010.0 1009.9 0.0
25/06:27am 22.7 27.6 22.4 98 0.2 CALM 0 0 0 0 1010.0 1009.9 0.0
25/06:00am 22.5 27.3 22.2 98 0.2 CALM 0 0 0 0 1009.7 1009.6 0.0
25/05:30am 22.7 27.6 22.4 98 0.2 CALM 0 0 0 0 1009.5 1009.4 0.0
25/05:00am 22.8 27.8 22.5 98 0.2 CALM 0 0 0 0 1009.4 1009.3 0.0
25/04:30am 22.8 27.8 22.5 98 0.2 CALM 0 0 0 0 1009.3 1009.2 0.0
25/04:00am 22.9 27.8 22.4 97 0.3 CALM 0 0 0 0 1009.4 1009.3 0.0
25/03:30am 23.2 28.3 22.7 97 0.3 CALM 0 0 0 0 1009.5 1009.4 0.0
25/03:17am 23.3 28.5 22.8 97 0.3 CALM 0 0 0 0 1009.6 1009.5 0.0
25/03:07am 23.3 28.5 22.8 97 0.3 CALM 0 0 0 0 1009.6 1009.5 0.0
25/03:04am 23.3 28.5 22.8 97 0.3 CALM 0 0 0 0 1009.7 1009.6 0.0
25/03:00am 23.3 28.5 22.8 97 0.3 CALM 0 0 0 0 1009.7 1009.6 0.0
25/02:48am 23.4 28.6 22.9 97 0.3 CALM 0 0 0 0 1009.8 1009.7 0.0
25/02:47am 23.4 28.6 22.9 97 0.3 CALM 0 0 0 0 1009.8 1009.7 0.0
25/02:30am 23.5 28.8 23.0 97 0.3 CALM 0 0 0 0 1009.9 1009.8 0.0
25/02:00am 23.5 28.8 23.0 97 0.3 CALM 0 0 0 0 1010.2 1010.1 0.0
25/01:58am 23.5 28.7 22.8 96 0.5 CALM 0 0 0 0 1010.1 1010.0 0.0
25/01:30am 23.7 29.0 23.0 96 0.5 CALM 0 0 0 0 1010.3 1010.2 0.0
25/01:14am 23.8 29.1 23.1 96 0.5 CALM 0 0 0 0 1010.5 1010.4 0.0
25/01:00am 24.0 29.4 23.3 96 0.5 CALM 0 0 0 0 1010.7 1010.6 0.0
25/12:38am 23.8 29.1 23.1 96 0.5 CALM 0 0 0 0 1010.8 1010.7 0.0
25/12:35am 23.7 29.0 23.0 96 0.5 CALM 0 0 0 0 1010.9 1010.8 0.0
25/12:30am 23.7 29.0 23.0 96 0.5 CALM 0 0 0 0 1010.9 1010.8 0.0
25/12:00am 23.6 28.8 22.9 96 0.5 CALM 0 0 0 0 1011.2 1011.1 0.0
 
Date/Time
EST
Temp
°C
App
Temp
°C
Dew
Point
°C
Rel
Hum
%
Delta-T
°C
Wind Press
QNH
hPa
Press
MSL
hPa
Rain since
9am
mm
Dir  Spd
km/h
Gust
km/h
Spd
kts
Gust
kts
24/11:59pm 23.6 28.8 22.9 96 0.5 CALM 0 0 0 0 1011.2 1011.1 0.0
24/11:30pm 23.8 29.1 23.0 95 0.5 CALM 0 0 0 0 1011.3 1011.2 0.0
24/11:11pm 24.1 29.5 23.2 95 0.6 CALM 0 0 0 0 1011.5 1011.4 0.0
24/11:00pm 24.0 29.3 23.0 94 0.7 CALM 0 0 0 0 1011.5 1011.4 0.0
24/10:47pm 24.1 29.3 22.9 93 0.8 CALM 0 0 0 0 1011.5 1011.4 0.0
24/10:30pm 24.0 29.3 23.0 94 0.7 CALM 0 0 0 0 1011.7 1011.6 0.0
24/10:02pm 25.0 29.6 23.1 89 1.3 S 4 6 2 3 1011.7 1011.6 0.0
24/10:00pm 25.0 29.6 23.1 89 1.3 S 4 7 2 4 1011.8 1011.7 0.0
24/09:36pm 24.9 30.5 23.5 92 1.0 CALM 0 6 0 3 1012.0 1011.9 0.0
24/09:30pm 24.8 29.8 23.2 91 1.1 WNW 2 7 1 4 1012.0 1011.9 0.0
24/09:00pm 25.7 30.1 23.4 87 1.6 SE 6 6 3 3 1011.9 1011.8 0.0
24/08:30pm 25.9 30.1 23.4 86 1.7 SSE 7 9 4 5 1011.6 1011.5 0.0
24/08:00pm 26.2 29.9 23.3 84 2.0 SE 9 13 5 7 1011.3 1011.2 0.0
24/07:30pm 26.5 29.8 23.2 82 2.2 SE 11 17 6 9 1011.0 1010.9 0.0
24/07:00pm 26.8 29.5 22.8 79 2.7 SE 13 17 7 9 1010.5 1010.4 0.0
24/06:30pm 27.1 29.7 22.7 77 3.0 SE 13 17 7 9 1010.2 1010.1 0.0
24/06:00pm 27.6 29.3 22.3 73 3.6 SE 17 26 9 14 1010.1 1010.0 0.0
24/05:30pm 28.3 29.7 22.8 72 3.7 ESE 20 28 11 15 1010.0 1009.9 0.0
24/05:00pm 28.9 30.0 22.4 68 4.4 ESE 20 28 11 15 1009.9 1009.8 0.0
24/04:30pm 29.3 30.1 22.5 67 4.6 SE 22 33 12 18 1009.7 1009.6 0.0
24/04:00pm 29.1 29.6 22.6 68 4.4 ESE 24 32 13 17 1009.5 1009.4 0.0
24/03:30pm 29.2 29.9 22.2 66 4.7 ESE 22 33 12 18 1009.4 1009.3 0.0
24/03:00pm 30.0 30.8 22.4 63 5.2 SE 22 32 12 17 1009.6 1009.5 0.0
24/02:30pm 29.6 29.5 22.3 65 5.0 SE 26 35 14 19 1009.8 1009.7 0.0
24/02:00pm 29.6 29.9 22.3 65 5.0 ESE 24 35 13 19 1010.1 1010.0 0.0
24/01:30pm 29.3 29.6 22.3 66 4.7 E 24 32 13 17 1010.4 1010.3 0.0
24/01:00pm 29.8 30.1 23.0 67 4.7 ESE 26 35 14 19 1010.8 1010.7 0.0
24/12:30pm 29.7 30.4 22.9 67 4.6 ESE 24 35 13 19 1011.1 1011.0 0.0
24/12:00pm 30.0 30.4 23.2 67 4.7 SE 26 35 14 19 1011.6 1011.5 0.0
24/11:30am 29.8 30.1 22.3 64 5.1 ESE 24 32 13 17 1012.2 1012.1 0.0
24/11:00am 29.4 29.5 22.6 67 4.6 SE 26 35 14 19 1012.7 1012.6 0.0
24/10:30am 28.8 29.1 22.3 68 4.4 SE 24 35 13 19 1012.9 1012.8 0.0
24/10:00am 29.2 30.2 22.9 69 4.3 SE 22 39 12 21 1013.0 1012.9 0.0
24/09:30am 28.5 28.6 22.5 70 4.1 SE 26 33 14 18 1012.9 1012.8 0.0
24/09:00am 28.5 29.8 22.7 71 3.9 ESE 20 28 11 15 1013.0 1012.9 0.0
24/08:30am 28.0 28.8 23.2 75 3.3 SE 24 32 13 17 1012.7 1012.6 0.0
24/08:00am 27.1 28.6 22.7 77 3.0 SE 19 26 10 14 1012.6 1012.5 0.0
24/07:30am 26.6 29.1 23.1 81 2.4 SE 15 20 8 11 1012.4 1012.3 0.0
24/07:00am 25.7 28.4 22.8 84 2.0 SE 13 17 7 9 1012.0 1011.9 0.0
24/06:30am 25.1 28.2 22.8 87 1.6 SE 11 15 6 8 1011.8 1011.7 0.0
24/06:00am 25.1 27.8 22.8 87 1.6 SE 13 17 7 9 1011.4 1011.3 0.0
24/05:30am 25.4 27.8 22.9 86 1.7 SE 15 20 8 11 1011.1 1011.0 0.0
24/05:00am 25.7 27.7 23.0 85 1.8 SE 17 20 9 11 1011.0 1010.9 0.0
24/04:30am 25.5 27.8 22.8 85 1.8 SE 15 19 8 10 1011.1 1011.0 0.0
24/04:00am 25.9 27.9 23.0 84 2.0 SE 17 20 9 11 1010.9 1010.8 0.0
24/03:30am 26.0 28.0 22.9 83 2.1 SE 17 22 9 12 1011.0 1010.9 0.0
24/03:00am 26.1 28.1 23.0 83 2.1 SE 17 22 9 12 1011.1 1011.0 0.0
24/02:30am 25.8 28.7 23.1 85 1.8 SE 13 17 7 9 1011.3 1011.2 0.0
24/02:00am 25.7 28.5 23.0 85 1.8 SE 13 20 7 11 1011.4 1011.3 0.0
24/01:30am 25.8 27.9 23.1 85 1.8 SE 17 22 9 12 1011.5 1011.4 0.0
24/01:00am 25.8 28.3 23.1 85 1.8 SE 15 22 8 12 1011.8 1011.7 0.0
24/12:30am 26.1 27.9 23.2 84 2.0 SE 19 26 10 14 1012.0 1011.9 0.0
24/12:00am 26.2 27.9 23.1 83 2.1 SE 19 28 10 15 1012.2 1012.1 0.0
 
Date/Time
EST
Temp
°C
App
Temp
°C
Dew
Point
°C
Rel
Hum
%
Delta-T
°C
Wind Press
QNH
hPa
Press
MSL
hPa
Rain since
9am
mm
Dir  Spd
km/h
Gust
km/h
Spd
kts
Gust
kts
23/11:30pm 26.4 29.0 23.3 83 2.1 ESE 15 28 8 15 1012.2 1012.1 0.0
23/11:00pm 26.2 28.5 23.5 85 1.8 SE 17 26 9 14 1012.5 1012.4 0.0
23/10:30pm 26.2 28.4 23.3 84 2.0 SE 17 24 9 13 1012.5 1012.4 0.0
23/10:00pm 26.4 28.6 23.3 83 2.1 SE 17 24 9 13 1012.7 1012.6 0.0
23/09:30pm 26.4 28.2 23.3 83 2.1 SE 19 24 10 13 1012.6 1012.5 0.0
23/09:00pm 26.6 28.4 23.3 82 2.3 SE 19 26 10 14 1012.4 1012.3 0.0
23/08:30pm 26.6 28.3 23.1 81 2.4 SE 19 24 10 13 1012.0 1011.9 0.0
23/08:00pm 26.7 28.3 23.2 81 2.4 SE 20 28 11 15 1011.5 1011.4 0.0
23/07:30pm 26.9 29.1 23.2 80 2.5 SE 17 22 9 12 1011.5 1011.4 0.0
23/07:00pm 26.9 28.5 22.9 79 2.7 SE 19 28 10 15 1011.2 1011.1 0.0
23/06:30pm 27.2 28.7 23.0 78 2.9 SE 20 30 11 16 1011.1 1011.0 0.0
23/06:00pm 27.7 29.6 23.5 78 2.9 SE 19 30 10 16 1010.9 1010.8 0.0
23/05:30pm 28.1 28.8 22.3 70 3.9 SE 22 39 12 21 1010.7 1010.6 0.0
23/05:00pm 28.4 29.4 22.9 72 3.8 ESE 22 35 12 19 1010.4 1010.3 0.0
23/04:30pm 29.3 30.0 23.0 69 4.3 ESE 24 39 13 21 1010.2 1010.1 0.0
23/04:20pm 29.0 28.7 22.5 68 4.4 SE 28 46 15 25 1010.1 1010.0 0.0
23/04:00pm 29.2 29.1 22.2 66 4.7 ESE 26 37 14 20 1010.0 1009.9 0.0
23/03:30pm 29.3 29.4 22.5 67 4.6 ESE 26 35 14 19 1010.0 1009.9 0.0
23/03:00pm 29.9 30.3 23.1 67 4.7 ESE 26 35 14 19 1010.1 1010.0 0.0
23/02:30pm 30.0 29.5 22.9 65 4.9 SE 30 39 16 21 1010.5 1010.4 0.0
23/02:00pm 30.5 31.4 23.9 68 4.6 ESE 26 39 14 21 1010.8 1010.7 0.0
23/01:30pm 29.7 29.5 22.7 66 4.8 SE 28 41 15 22 1011.2 1011.1 0.0
23/01:00pm 29.7 29.8 23.2 68 4.5 ESE 28 37 15 20 1011.4 1011.3 0.0
23/12:30pm 30.2 30.9 23.6 67 4.6 ESE 26 39 14 21 1011.9 1011.8 0.0
23/12:00pm 30.0 29.8 22.7 65 5.0 ESE 28 44 15 24 1012.4 1012.3 0.0
23/11:30am 29.4 29.3 22.9 68 4.4 ESE 28 41 15 22 1012.9 1012.8 0.0
23/11:00am 29.2 28.6 22.7 68 4.4 ESE 30 39 16 21 1013.2 1013.1 0.0
23/10:30am 29.4 30.3 23.4 70 4.1 ESE 24 35 13 19 1013.5 1013.4 0.0
23/10:00am 29.3 29.4 22.5 67 4.6 ESE 26 35 14 19 1013.5 1013.4 0.0
23/09:30am 29.1 29.7 23.5 72 3.9 ESE 26 37 14 20 1013.5 1013.4 0.0
23/09:00am 28.4 29.3 23.3 74 3.5 ESE 24 33 13 18 1013.3 1013.2 0.0
23/08:30am 27.7 28.7 22.9 75 3.3 ESE 22 32 12 17 1013.1 1013.0 0.0
23/08:00am 27.2 29.0 23.2 79 2.7 ESE 19 26 10 14 1012.9 1012.8 0.0
23/07:30am 26.8 28.5 23.1 80 2.5 SE 19 24 10 13 1012.7 1012.6 0.0
23/07:00am 25.9 28.2 23.4 86 1.7 SE 17 24 9 13 1012.4 1012.3 0.0
23/06:30am 25.7 27.4 23.4 87 1.6 SE 20 28 11 15 1012.3 1012.2 0.0
23/06:00am 26.0 28.5 23.1 84 2.0 SE 15 20 8 11 1011.9 1011.8 0.0
23/05:30am 26.2 28.1 22.7 81 2.4 SE 17 24 9 13 1011.5 1011.4 0.0
23/05:00am 26.4 27.8 22.9 81 2.4 SE 20 30 11 16 1011.3 1011.2 0.0
23/04:30am 26.3 28.2 23.4 84 2.0 SE 19 26 10 14 1011.4 1011.3 0.0
23/04:00am 26.3 28.5 23.2 83 2.1 SE 17 24 9 13 1011.2 1011.1 0.0
23/03:30am 26.2 28.2 22.9 82 2.2 SE 17 20 9 11 1011.4 1011.3 0.0
23/03:00am 26.1 28.5 23.6 86 1.7 SE 17 24 9 13 1011.6 1011.5 0.0
23/02:30am 26.2 29.0 23.7 86 1.7 SE 15 20 8 11 1011.8 1011.7 0.0

Other formats

Comma delimited format used in spreadsheet applications
http://www.bom.gov.au/fwo/IDQ60801/IDQ60801.94186.axf

JavaScript Object Notation format (JSON) in row-major order
http://www.bom.gov.au/fwo/IDQ60801/IDQ60801.94186.json

Data quality

Most of these data are generated automatically and are frequently updated. Quality checks on data are not normally performed. It is possible for incorrect values to appear. Refer to information at About Latest Weather Observations and please check the disclaimer before using these data.